sensor_id;sensor_type;location;lat;lon;timestamp;P1;durP1;ratioP1;P2;durP2;ratioP2
56830;SDS011;42713;42.676;23.352;2023-05-16T00:01:13;17.85;;;10.60;;
56830;SDS011;42713;42.676;23.352;2023-05-16T00:03:38;18.02;;;10.85;;
56830;SDS011;42713;42.676;23.352;2023-05-16T00:06:06;22.15;;;11.35;;
56830;SDS011;42713;42.676;23.352;2023-05-16T00:08:32;20.17;;;10.93;;
56830;SDS011;42713;42.676;23.352;2023-05-16T00:10:57;17.73;;;12.23;;
56830;SDS011;42713;42.676;23.352;2023-05-16T00:13:23;20.25;;;10.95;;
56830;SDS011;42713;42.676;23.352;2023-05-16T00:15:50;17.67;;;11.25;;
56830;SDS011;42713;42.676;23.352;2023-05-16T00:18:16;20.00;;;11.13;;
56830;SDS011;42713;42.676;23.352;2023-05-16T00:20:43;20.13;;;11.55;;
56830;SDS011;42713;42.676;23.352;2023-05-16T00:23:09;19.88;;;11.93;;
56830;SDS011;42713;42.676;23.352;2023-05-16T00:25:34;15.75;;;11.15;;
56830;SDS011;42713;42.676;23.352;2023-05-16T00:28:00;17.77;;;12.35;;
56830;SDS011;42713;42.676;23.352;2023-05-16T00:30:26;19.30;;;12.38;;
56830;SDS011;42713;42.676;23.352;2023-05-16T00:32:53;20.95;;;11.77;;
56830;SDS011;42713;42.676;23.352;2023-05-16T00:35:19;16.58;;;11.70;;
56830;SDS011;42713;42.676;23.352;2023-05-16T00:37:44;16.85;;;11.50;;
56830;SDS011;42713;42.676;23.352;2023-05-16T00:40:10;22.98;;;12.20;;
56830;SDS011;42713;42.676;23.352;2023-05-16T00:42:37;19.02;;;11.82;;
56830;SDS011;42713;42.676;23.352;2023-05-16T00:45:03;19.45;;;12.13;;
56830;SDS011;42713;42.676;23.352;2023-05-16T00:47:29;18.50;;;11.80;;
56830;SDS011;42713;42.676;23.352;2023-05-16T00:49:54;17.85;;;11.07;;
56830;SDS011;42713;42.676;23.352;2023-05-16T00:52:20;17.85;;;11.40;;
56830;SDS011;42713;42.676;23.352;2023-05-16T00:54:46;19.48;;;11.90;;
56830;SDS011;42713;42.676;23.352;2023-05-16T00:57:11;18.25;;;12.38;;
56830;SDS011;42713;42.676;23.352;2023-05-16T00:59:37;23.02;;;12.00;;
56830;SDS011;42713;42.676;23.352;2023-05-16T01:02:03;21.23;;;11.63;;
56830;SDS011;42713;42.676;23.352;2023-05-16T01:04:28;18.73;;;12.45;;
56830;SDS011;42713;42.676;23.352;2023-05-16T01:06:55;19.80;;;12.38;;
56830;SDS011;42713;42.676;23.352;2023-05-16T01:09:21;24.00;;;12.65;;
56830;SDS011;42713;42.676;23.352;2023-05-16T01:17:21;22.60;;;12.23;;
56830;SDS011;42713;42.676;23.352;2023-05-16T01:19:59;20.40;;;11.60;;
56830;SDS011;42713;42.676;23.352;2023-05-16T01:25:38;18.60;;;11.40;;
56830;SDS011;42713;42.676;23.352;2023-05-16T01:28:07;19.75;;;12.00;;
56830;SDS011;42713;42.676;23.352;2023-05-16T01:30:34;21.42;;;12.55;;
56830;SDS011;42713;42.676;23.352;2023-05-16T01:33:02;22.80;;;11.85;;
56830;SDS011;42713;42.676;23.352;2023-05-16T01:35:29;20.33;;;11.57;;
56830;SDS011;42713;42.676;23.352;2023-05-16T01:41:01;18.92;;;12.52;;
56830;SDS011;42713;42.676;23.352;2023-05-16T01:43:33;22.20;;;11.82;;
56830;SDS011;42713;42.676;23.352;2023-05-16T01:46:11;19.88;;;11.68;;
56830;SDS011;42713;42.676;23.352;2023-05-16T01:48:43;23.42;;;12.18;;
56830;SDS011;42713;42.676;23.352;2023-05-16T01:51:17;17.13;;;11.23;;
56830;SDS011;42713;42.676;23.352;2023-05-16T01:53:46;20.08;;;11.68;;
56830;SDS011;42713;42.676;23.352;2023-05-16T01:56:14;19.17;;;11.48;;
56830;SDS011;42713;42.676;23.352;2023-05-16T01:58:40;16.90;;;10.88;;
56830;SDS011;42713;42.676;23.352;2023-05-16T02:01:07;18.30;;;10.48;;
56830;SDS011;42713;42.676;23.352;2023-05-16T02:03:32;15.05;;;10.02;;
56830;SDS011;42713;42.676;23.352;2023-05-16T02:05:58;21.65;;;10.18;;
56830;SDS011;42713;42.676;23.352;2023-05-16T02:08:25;18.15;;;9.93;;
56830;SDS011;42713;42.676;23.352;2023-05-16T02:10:51;18.63;;;9.80;;
56830;SDS011;42713;42.676;23.352;2023-05-16T02:13:17;15.13;;;9.38;;
56830;SDS011;42713;42.676;23.352;2023-05-16T02:15:43;18.00;;;9.77;;
56830;SDS011;42713;42.676;23.352;2023-05-16T02:18:08;16.67;;;9.60;;
56830;SDS011;42713;42.676;23.352;2023-05-16T02:20:35;16.90;;;10.25;;
56830;SDS011;42713;42.676;23.352;2023-05-16T02:23:00;14.55;;;10.32;;
56830;SDS011;42713;42.676;23.352;2023-05-16T02:25:27;17.55;;;10.10;;
56830;SDS011;42713;42.676;23.352;2023-05-16T02:27:53;15.32;;;9.50;;
56830;SDS011;42713;42.676;23.352;2023-05-16T02:30:18;19.20;;;9.57;;
56830;SDS011;42713;42.676;23.352;2023-05-16T02:32:44;14.10;;;9.07;;
56830;SDS011;42713;42.676;23.352;2023-05-16T02:35:10;17.65;;;8.95;;
56830;SDS011;42713;42.676;23.352;2023-05-16T02:37:35;19.20;;;8.68;;
56830;SDS011;42713;42.676;23.352;2023-05-16T02:40:02;12.95;;;8.32;;
56830;SDS011;42713;42.676;23.352;2023-05-16T02:42:31;14.20;;;8.63;;
56830;SDS011;42713;42.676;23.352;2023-05-16T02:44:57;15.57;;;8.23;;
56830;SDS011;42713;42.676;23.352;2023-05-16T02:47:22;14.07;;;8.15;;
56830;SDS011;42713;42.676;23.352;2023-05-16T02:49:48;15.32;;;8.25;;
56830;SDS011;42713;42.676;23.352;2023-05-16T02:52:13;14.15;;;8.57;;
56830;SDS011;42713;42.676;23.352;2023-05-16T02:54:38;15.73;;;7.80;;
56830;SDS011;42713;42.676;23.352;2023-05-16T02:57:04;14.27;;;8.23;;
56830;SDS011;42713;42.676;23.352;2023-05-16T02:59:29;15.55;;;7.93;;
56830;SDS011;42713;42.676;23.352;2023-05-16T03:01:55;14.90;;;7.18;;
56830;SDS011;42713;42.676;23.352;2023-05-16T03:04:21;17.70;;;7.82;;
56830;SDS011;42713;42.676;23.352;2023-05-16T03:06:47;14.27;;;8.13;;
56830;SDS011;42713;42.676;23.352;2023-05-16T03:09:15;12.18;;;7.57;;
56830;SDS011;42713;42.676;23.352;2023-05-16T03:11:40;23.95;;;8.48;;
56830;SDS011;42713;42.676;23.352;2023-05-16T03:14:06;13.73;;;7.28;;
56830;SDS011;42713;42.676;23.352;2023-05-16T03:16:32;14.50;;;8.73;;
56830;SDS011;42713;42.676;23.352;2023-05-16T03:18:58;14.70;;;8.55;;
56830;SDS011;42713;42.676;23.352;2023-05-16T03:21:23;15.05;;;8.07;;
56830;SDS011;42713;42.676;23.352;2023-05-16T03:23:48;17.58;;;8.38;;
56830;SDS011;42713;42.676;23.352;2023-05-16T03:26:14;15.90;;;7.82;;
56830;SDS011;42713;42.676;23.352;2023-05-16T03:28:40;12.90;;;7.63;;
56830;SDS011;42713;42.676;23.352;2023-05-16T03:31:05;18.40;;;8.25;;
56830;SDS011;42713;42.676;23.352;2023-05-16T03:33:31;13.85;;;7.60;;
56830;SDS011;42713;42.676;23.352;2023-05-16T03:35:56;14.52;;;8.00;;
56830;SDS011;42713;42.676;23.352;2023-05-16T03:38:22;13.45;;;8.65;;
56830;SDS011;42713;42.676;23.352;2023-05-16T03:40:48;16.83;;;8.50;;
56830;SDS011;42713;42.676;23.352;2023-05-16T03:43:13;14.80;;;7.75;;
56830;SDS011;42713;42.676;23.352;2023-05-16T03:45:38;15.50;;;7.97;;
56830;SDS011;42713;42.676;23.352;2023-05-16T03:48:04;14.80;;;8.43;;
56830;SDS011;42713;42.676;23.352;2023-05-16T03:50:30;15.70;;;8.27;;
56830;SDS011;42713;42.676;23.352;2023-05-16T03:52:55;16.73;;;9.20;;
56830;SDS011;42713;42.676;23.352;2023-05-16T03:55:20;14.85;;;8.07;;
56830;SDS011;42713;42.676;23.352;2023-05-16T03:57:46;17.75;;;9.38;;
56830;SDS011;42713;42.676;23.352;2023-05-16T04:00:14;18.50;;;8.98;;
56830;SDS011;42713;42.676;23.352;2023-05-16T04:02:40;17.38;;;9.15;;
56830;SDS011;42713;42.676;23.352;2023-05-16T04:05:07;13.00;;;7.97;;
56830;SDS011;42713;42.676;23.352;2023-05-16T04:07:33;18.02;;;9.30;;
56830;SDS011;42713;42.676;23.352;2023-05-16T04:09:59;15.25;;;8.82;;
56830;SDS011;42713;42.676;23.352;2023-05-16T04:12:24;18.13;;;9.77;;
56830;SDS011;42713;42.676;23.352;2023-05-16T04:14:50;17.13;;;9.80;;
56830;SDS011;42713;42.676;23.352;2023-05-16T04:17:15;19.02;;;10.23;;
56830;SDS011;42713;42.676;23.352;2023-05-16T04:19:41;17.02;;;10.00;;
56830;SDS011;42713;42.676;23.352;2023-05-16T04:22:06;16.45;;;10.60;;
56830;SDS011;42713;42.676;23.352;2023-05-16T04:24:32;19.48;;;10.18;;
56830;SDS011;42713;42.676;23.352;2023-05-16T04:26:57;18.13;;;10.02;;
56830;SDS011;42713;42.676;23.352;2023-05-16T04:29:23;18.80;;;10.48;;
56830;SDS011;42713;42.676;23.352;2023-05-16T04:31:48;19.80;;;10.70;;
56830;SDS011;42713;42.676;23.352;2023-05-16T04:34:14;18.33;;;10.00;;
56830;SDS011;42713;42.676;23.352;2023-05-16T04:36:40;15.93;;;9.70;;
56830;SDS011;42713;42.676;23.352;2023-05-16T04:39:06;17.40;;;10.40;;
56830;SDS011;42713;42.676;23.352;2023-05-16T04:41:32;17.17;;;10.93;;
56830;SDS011;42713;42.676;23.352;2023-05-16T04:44:00;20.23;;;10.00;;
56830;SDS011;42713;42.676;23.352;2023-05-16T04:46:28;17.92;;;10.25;;
56830;SDS011;42713;42.676;23.352;2023-05-16T04:48:54;16.83;;;10.35;;
56830;SDS011;42713;42.676;23.352;2023-05-16T04:51:19;14.95;;;10.48;;
56830;SDS011;42713;42.676;23.352;2023-05-16T04:53:45;22.77;;;10.98;;
56830;SDS011;42713;42.676;23.352;2023-05-16T04:56:11;21.42;;;11.25;;
56830;SDS011;42713;42.676;23.352;2023-05-16T04:58:37;20.08;;;11.75;;
56830;SDS011;42713;42.676;23.352;2023-05-16T05:01:02;19.10;;;10.95;;
56830;SDS011;42713;42.676;23.352;2023-05-16T05:03:28;23.17;;;11.13;;
56830;SDS011;42713;42.676;23.352;2023-05-16T05:05:53;24.15;;;11.27;;
56830;SDS011;42713;42.676;23.352;2023-05-16T05:08:22;20.90;;;10.60;;
56830;SDS011;42713;42.676;23.352;2023-05-16T05:10:47;17.13;;;10.93;;
56830;SDS011;42713;42.676;23.352;2023-05-16T05:13:12;19.80;;;12.10;;
56830;SDS011;42713;42.676;23.352;2023-05-16T05:15:38;20.58;;;11.90;;
56830;SDS011;42713;42.676;23.352;2023-05-16T05:18:03;19.25;;;11.68;;
56830;SDS011;42713;42.676;23.352;2023-05-16T05:20:29;19.42;;;11.40;;
56830;SDS011;42713;42.676;23.352;2023-05-16T05:22:55;20.75;;;11.98;;
56830;SDS011;42713;42.676;23.352;2023-05-16T05:25:20;20.27;;;11.95;;
56830;SDS011;42713;42.676;23.352;2023-05-16T05:27:46;23.38;;;12.38;;
56830;SDS011;42713;42.676;23.352;2023-05-16T05:30:11;17.85;;;11.85;;
56830;SDS011;42713;42.676;23.352;2023-05-16T05:32:37;19.13;;;11.27;;
56830;SDS011;42713;42.676;23.352;2023-05-16T05:35:02;20.33;;;11.77;;
56830;SDS011;42713;42.676;23.352;2023-05-16T05:37:28;21.42;;;11.82;;
56830;SDS011;42713;42.676;23.352;2023-05-16T05:39:54;22.17;;;11.88;;
56830;SDS011;42713;42.676;23.352;2023-05-16T05:42:20;23.40;;;11.55;;
56830;SDS011;42713;42.676;23.352;2023-05-16T05:44:45;21.27;;;11.52;;
56830;SDS011;42713;42.676;23.352;2023-05-16T05:47:11;28.08;;;11.95;;
56830;SDS011;42713;42.676;23.352;2023-05-16T05:49:38;19.13;;;11.32;;
56830;SDS011;42713;42.676;23.352;2023-05-16T05:52:04;19.02;;;11.57;;
56830;SDS011;42713;42.676;23.352;2023-05-16T05:54:30;23.98;;;10.85;;
56830;SDS011;42713;42.676;23.352;2023-05-16T05:56:58;22.95;;;11.05;;
56830;SDS011;42713;42.676;23.352;2023-05-16T05:59:24;20.10;;;10.13;;
56830;SDS011;42713;42.676;23.352;2023-05-16T06:01:51;23.30;;;11.40;;
56830;SDS011;42713;42.676;23.352;2023-05-16T06:04:18;17.95;;;11.27;;
56830;SDS011;42713;42.676;23.352;2023-05-16T06:06:46;22.02;;;11.35;;
56830;SDS011;42713;42.676;23.352;2023-05-16T06:09:12;19.85;;;10.57;;
56830;SDS011;42713;42.676;23.352;2023-05-16T06:11:39;17.30;;;9.63;;
56830;SDS011;42713;42.676;23.352;2023-05-16T06:14:05;22.52;;;10.38;;
56830;SDS011;42713;42.676;23.352;2023-05-16T06:16:30;18.67;;;9.52;;
56830;SDS011;42713;42.676;23.352;2023-05-16T06:18:56;25.15;;;10.48;;
56830;SDS011;42713;42.676;23.352;2023-05-16T06:21:21;26.00;;;10.10;;
56830;SDS011;42713;42.676;23.352;2023-05-16T06:23:47;18.52;;;9.65;;
56830;SDS011;42713;42.676;23.352;2023-05-16T06:26:13;17.38;;;9.70;;
56830;SDS011;42713;42.676;23.352;2023-05-16T06:28:38;18.77;;;9.65;;
56830;SDS011;42713;42.676;23.352;2023-05-16T06:31:06;16.30;;;9.15;;
56830;SDS011;42713;42.676;23.352;2023-05-16T06:33:32;19.50;;;9.18;;
56830;SDS011;42713;42.676;23.352;2023-05-16T06:35:58;19.10;;;9.27;;
56830;SDS011;42713;42.676;23.352;2023-05-16T06:38:24;18.60;;;10.05;;
56830;SDS011;42713;42.676;23.352;2023-05-16T06:40:49;18.48;;;9.88;;
56830;SDS011;42713;42.676;23.352;2023-05-16T06:43:17;19.90;;;10.57;;
56830;SDS011;42713;42.676;23.352;2023-05-16T06:45:43;18.42;;;10.05;;
56830;SDS011;42713;42.676;23.352;2023-05-16T06:48:10;20.00;;;9.32;;
56830;SDS011;42713;42.676;23.352;2023-05-16T06:50:37;14.70;;;9.27;;
56830;SDS011;42713;42.676;23.352;2023-05-16T06:53:03;17.15;;;9.27;;
56830;SDS011;42713;42.676;23.352;2023-05-16T06:55:31;19.35;;;9.63;;
56830;SDS011;42713;42.676;23.352;2023-05-16T06:57:57;17.13;;;9.27;;
56830;SDS011;42713;42.676;23.352;2023-05-16T07:00:25;15.55;;;9.35;;
56830;SDS011;42713;42.676;23.352;2023-05-16T07:02:51;14.40;;;8.50;;
56830;SDS011;42713;42.676;23.352;2023-05-16T07:05:19;16.55;;;8.80;;
56830;SDS011;42713;42.676;23.352;2023-05-16T07:07:45;14.75;;;9.00;;
56830;SDS011;42713;42.676;23.352;2023-05-16T07:10:11;15.35;;;8.60;;
56830;SDS011;42713;42.676;23.352;2023-05-16T07:12:40;14.02;;;8.55;;
56830;SDS011;42713;42.676;23.352;2023-05-16T07:15:07;15.98;;;8.20;;
56830;SDS011;42713;42.676;23.352;2023-05-16T07:17:35;21.80;;;8.40;;
56830;SDS011;42713;42.676;23.352;2023-05-16T07:20:00;15.43;;;8.02;;
56830;SDS011;42713;42.676;23.352;2023-05-16T07:22:26;19.85;;;8.40;;
56830;SDS011;42713;42.676;23.352;2023-05-16T07:24:52;17.48;;;8.55;;
56830;SDS011;42713;42.676;23.352;2023-05-16T07:27:21;18.88;;;8.60;;
56830;SDS011;42713;42.676;23.352;2023-05-16T07:29:47;16.92;;;7.90;;
56830;SDS011;42713;42.676;23.352;2023-05-16T07:32:12;14.82;;;8.07;;
56830;SDS011;42713;42.676;23.352;2023-05-16T07:34:38;23.30;;;8.25;;
56830;SDS011;42713;42.676;23.352;2023-05-16T07:37:05;17.70;;;8.73;;
56830;SDS011;42713;42.676;23.352;2023-05-16T07:42:02;15.13;;;8.02;;
56830;SDS011;42713;42.676;23.352;2023-05-16T07:44:27;25.35;;;8.88;;
56830;SDS011;42713;42.676;23.352;2023-05-16T07:46:53;17.70;;;8.18;;
56830;SDS011;42713;42.676;23.352;2023-05-16T07:49:18;14.52;;;8.48;;
56830;SDS011;42713;42.676;23.352;2023-05-16T07:51:44;15.60;;;8.75;;
56830;SDS011;42713;42.676;23.352;2023-05-16T07:54:09;16.30;;;8.55;;
56830;SDS011;42713;42.676;23.352;2023-05-16T07:56:35;20.52;;;9.20;;
56830;SDS011;42713;42.676;23.352;2023-05-16T07:59:00;21.45;;;8.35;;
56830;SDS011;42713;42.676;23.352;2023-05-16T08:01:26;16.90;;;8.50;;
56830;SDS011;42713;42.676;23.352;2023-05-16T08:03:51;17.30;;;8.38;;
56830;SDS011;42713;42.676;23.352;2023-05-16T08:06:17;15.98;;;8.27;;
56830;SDS011;42713;42.676;23.352;2023-05-16T08:08:42;18.58;;;8.70;;
56830;SDS011;42713;42.676;23.352;2023-05-16T08:11:08;15.80;;;7.90;;
56830;SDS011;42713;42.676;23.352;2023-05-16T08:13:33;18.65;;;7.68;;
56830;SDS011;42713;42.676;23.352;2023-05-16T08:15:59;15.30;;;7.97;;
56830;SDS011;42713;42.676;23.352;2023-05-16T08:18:25;17.40;;;8.10;;
56830;SDS011;42713;42.676;23.352;2023-05-16T08:20:50;19.20;;;8.43;;
56830;SDS011;42713;42.676;23.352;2023-05-16T08:26:31;16.95;;;7.95;;
56830;SDS011;42713;42.676;23.352;2023-05-16T08:29:08;17.77;;;8.13;;
56830;SDS011;42713;42.676;23.352;2023-05-16T08:31:36;19.10;;;7.95;;
56830;SDS011;42713;42.676;23.352;2023-05-16T08:34:13;19.45;;;8.00;;
56830;SDS011;42713;42.676;23.352;2023-05-16T08:37:11;14.30;;;7.72;;
56830;SDS011;42713;42.676;23.352;2023-05-16T08:39:48;17.55;;;8.40;;
56830;SDS011;42713;42.676;23.352;2023-05-16T08:42:24;17.45;;;8.13;;
56830;SDS011;42713;42.676;23.352;2023-05-16T08:44:52;21.13;;;8.68;;
56830;SDS011;42713;42.676;23.352;2023-05-16T08:47:44;18.38;;;8.27;;
56830;SDS011;42713;42.676;23.352;2023-05-16T08:50:14;19.52;;;8.07;;
56830;SDS011;42713;42.676;23.352;2023-05-16T08:52:40;15.38;;;7.60;;
56830;SDS011;42713;42.676;23.352;2023-05-16T08:55:11;15.32;;;7.90;;
56830;SDS011;42713;42.676;23.352;2023-05-16T08:57:39;13.25;;;7.20;;
56830;SDS011;42713;42.676;23.352;2023-05-16T09:00:13;11.20;;;6.80;;
56830;SDS011;42713;42.676;23.352;2023-05-16T09:02:40;17.48;;;6.85;;
56830;SDS011;42713;42.676;23.352;2023-05-16T09:05:13;15.50;;;7.18;;
56830;SDS011;42713;42.676;23.352;2023-05-16T09:07:40;16.13;;;7.95;;
56830;SDS011;42713;42.676;23.352;2023-05-16T09:10:06;16.65;;;7.35;;
56830;SDS011;42713;42.676;23.352;2023-05-16T09:12:35;18.40;;;7.45;;
56830;SDS011;42713;42.676;23.352;2023-05-16T09:15:02;17.00;;;7.03;;
56830;SDS011;42713;42.676;23.352;2023-05-16T09:17:42;17.67;;;6.95;;
56830;SDS011;42713;42.676;23.352;2023-05-16T09:20:18;11.30;;;6.60;;
56830;SDS011;42713;42.676;23.352;2023-05-16T09:25:24;20.08;;;7.45;;
56830;SDS011;42713;42.676;23.352;2023-05-16T09:27:54;17.88;;;7.15;;
56830;SDS011;42713;42.676;23.352;2023-05-16T09:30:21;14.80;;;6.30;;
56830;SDS011;42713;42.676;23.352;2023-05-16T09:32:51;17.08;;;7.03;;
56830;SDS011;42713;42.676;23.352;2023-05-16T09:35:18;16.95;;;7.25;;
56830;SDS011;42713;42.676;23.352;2023-05-16T09:37:45;19.17;;;7.25;;
56830;SDS011;42713;42.676;23.352;2023-05-16T09:40:11;14.00;;;6.68;;
56830;SDS011;42713;42.676;23.352;2023-05-16T09:42:37;15.88;;;6.65;;
56830;SDS011;42713;42.676;23.352;2023-05-16T09:45:03;19.48;;;7.20;;
56830;SDS011;42713;42.676;23.352;2023-05-16T09:47:29;18.27;;;8.05;;
56830;SDS011;42713;42.676;23.352;2023-05-16T09:49:55;19.65;;;7.97;;
56830;SDS011;42713;42.676;23.352;2023-05-16T09:52:20;14.32;;;6.32;;
56830;SDS011;42713;42.676;23.352;2023-05-16T09:54:46;15.15;;;6.60;;
56830;SDS011;42713;42.676;23.352;2023-05-16T09:57:20;12.32;;;6.97;;
56830;SDS011;42713;42.676;23.352;2023-05-16T09:59:45;13.02;;;6.57;;
56830;SDS011;42713;42.676;23.352;2023-05-16T10:02:12;14.75;;;6.32;;
56830;SDS011;42713;42.676;23.352;2023-05-16T10:04:38;14.75;;;6.82;;
56830;SDS011;42713;42.676;23.352;2023-05-16T10:07:04;14.65;;;6.65;;
56830;SDS011;42713;42.676;23.352;2023-05-16T10:09:34;11.13;;;6.80;;
56830;SDS011;42713;42.676;23.352;2023-05-16T10:12:01;11.27;;;6.43;;
56830;SDS011;42713;42.676;23.352;2023-05-16T10:14:29;16.48;;;7.35;;
56830;SDS011;42713;42.676;23.352;2023-05-16T10:17:00;21.67;;;7.28;;
56830;SDS011;42713;42.676;23.352;2023-05-16T10:19:28;13.93;;;7.15;;
56830;SDS011;42713;42.676;23.352;2023-05-16T10:21:57;17.23;;;7.28;;
56830;SDS011;42713;42.676;23.352;2023-05-16T10:24:28;11.68;;;6.90;;
56830;SDS011;42713;42.676;23.352;2023-05-16T10:27:01;14.02;;;7.15;;
56830;SDS011;42713;42.676;23.352;2023-05-16T10:29:27;15.55;;;7.43;;
56830;SDS011;42713;42.676;23.352;2023-05-16T10:31:53;20.20;;;7.57;;
56830;SDS011;42713;42.676;23.352;2023-05-16T10:34:19;19.45;;;7.20;;
56830;SDS011;42713;42.676;23.352;2023-05-16T10:36:46;17.35;;;6.97;;
56830;SDS011;42713;42.676;23.352;2023-05-16T10:39:12;18.38;;;7.93;;
56830;SDS011;42713;42.676;23.352;2023-05-16T10:41:39;16.55;;;7.53;;
56830;SDS011;42713;42.676;23.352;2023-05-16T10:44:12;15.75;;;7.55;;
56830;SDS011;42713;42.676;23.352;2023-05-16T10:46:40;18.35;;;7.25;;
56830;SDS011;42713;42.676;23.352;2023-05-16T10:51:41;24.63;;;7.15;;
56830;SDS011;42713;42.676;23.352;2023-05-16T10:54:09;16.42;;;7.32;;
56830;SDS011;42713;42.676;23.352;2023-05-16T10:56:38;15.68;;;7.03;;
56830;SDS011;42713;42.676;23.352;2023-05-16T10:59:04;13.45;;;7.53;;
56830;SDS011;42713;42.676;23.352;2023-05-16T11:02:03;14.88;;;6.72;;
56830;SDS011;42713;42.676;23.352;2023-05-16T11:04:56;15.93;;;7.65;;
56830;SDS011;42713;42.676;23.352;2023-05-16T11:07:24;15.35;;;6.80;;
56830;SDS011;42713;42.676;23.352;2023-05-16T11:12:35;15.23;;;7.60;;
56830;SDS011;42713;42.676;23.352;2023-05-16T11:15:16;18.10;;;8.02;;
56830;SDS011;42713;42.676;23.352;2023-05-16T11:17:45;21.38;;;8.52;;
56830;SDS011;42713;42.676;23.352;2023-05-16T11:20:24;15.95;;;7.45;;
56830;SDS011;42713;42.676;23.352;2023-05-16T11:25:41;17.63;;;8.75;;
56830;SDS011;42713;42.676;23.352;2023-05-16T11:28:27;15.90;;;7.70;;
56830;SDS011;42713;42.676;23.352;2023-05-16T11:30:58;16.70;;;7.93;;
56830;SDS011;42713;42.676;23.352;2023-05-16T11:33:26;17.52;;;7.75;;
56830;SDS011;42713;42.676;23.352;2023-05-16T11:36:00;19.77;;;8.52;;
56830;SDS011;42713;42.676;23.352;2023-05-16T11:38:32;20.27;;;8.63;;
56830;SDS011;42713;42.676;23.352;2023-05-16T11:41:05;20.35;;;8.18;;
56830;SDS011;42713;42.676;23.352;2023-05-16T11:43:42;19.63;;;8.20;;
56830;SDS011;42713;42.676;23.352;2023-05-16T11:46:14;19.13;;;8.75;;
56830;SDS011;42713;42.676;23.352;2023-05-16T11:48:41;18.33;;;8.27;;
56830;SDS011;42713;42.676;23.352;2023-05-16T11:51:07;21.23;;;7.80;;
56830;SDS011;42713;42.676;23.352;2023-05-16T11:53:34;16.15;;;7.72;;
56830;SDS011;42713;42.676;23.352;2023-05-16T11:55:59;14.05;;;7.63;;
56830;SDS011;42713;42.676;23.352;2023-05-16T11:58:26;18.55;;;7.75;;
56830;SDS011;42713;42.676;23.352;2023-05-16T12:00:52;20.40;;;7.50;;
56830;SDS011;42713;42.676;23.352;2023-05-16T12:03:18;19.83;;;7.78;;
56830;SDS011;42713;42.676;23.352;2023-05-16T12:05:54;22.48;;;7.22;;
56830;SDS011;42713;42.676;23.352;2023-05-16T12:08:22;15.93;;;7.18;;
56830;SDS011;42713;42.676;23.352;2023-05-16T12:10:48;20.55;;;7.78;;
56830;SDS011;42713;42.676;23.352;2023-05-16T12:13:17;16.38;;;7.03;;
56830;SDS011;42713;42.676;23.352;2023-05-16T12:15:44;15.48;;;6.40;;
56830;SDS011;42713;42.676;23.352;2023-05-16T12:18:10;14.38;;;7.30;;
56830;SDS011;42713;42.676;23.352;2023-05-16T12:20:36;17.77;;;7.25;;
56830;SDS011;42713;42.676;23.352;2023-05-16T12:23:01;19.67;;;7.00;;
56830;SDS011;42713;42.676;23.352;2023-05-16T12:25:29;19.80;;;7.03;;
56830;SDS011;42713;42.676;23.352;2023-05-16T12:27:57;15.27;;;7.03;;
56830;SDS011;42713;42.676;23.352;2023-05-16T12:30:25;18.38;;;6.75;;
56830;SDS011;42713;42.676;23.352;2023-05-16T12:32:55;23.17;;;6.45;;
56830;SDS011;42713;42.676;23.352;2023-05-16T12:35:22;12.60;;;5.95;;
56830;SDS011;42713;42.676;23.352;2023-05-16T12:37:54;19.35;;;6.20;;
56830;SDS011;42713;42.676;23.352;2023-05-16T12:40:20;19.02;;;6.93;;
56830;SDS011;42713;42.676;23.352;2023-05-16T12:42:50;17.30;;;6.45;;
56830;SDS011;42713;42.676;23.352;2023-05-16T12:45:17;23.50;;;7.43;;
56830;SDS011;42713;42.676;23.352;2023-05-16T12:47:43;17.60;;;6.35;;
56830;SDS011;42713;42.676;23.352;2023-05-16T12:50:12;18.40;;;6.93;;
56830;SDS011;42713;42.676;23.352;2023-05-16T12:52:48;18.38;;;6.57;;
56830;SDS011;42713;42.676;23.352;2023-05-16T12:55:16;18.63;;;7.93;;
56830;SDS011;42713;42.676;23.352;2023-05-16T12:57:43;17.65;;;7.68;;
56830;SDS011;42713;42.676;23.352;2023-05-16T13:00:10;14.68;;;7.47;;
56830;SDS011;42713;42.676;23.352;2023-05-16T13:02:37;15.80;;;7.10;;
56830;SDS011;42713;42.676;23.352;2023-05-16T13:05:03;21.30;;;7.20;;
56830;SDS011;42713;42.676;23.352;2023-05-16T13:07:29;21.73;;;7.70;;
56830;SDS011;42713;42.676;23.352;2023-05-16T13:09:55;15.48;;;6.93;;
56830;SDS011;42713;42.676;23.352;2023-05-16T13:12:20;18.55;;;7.43;;
56830;SDS011;42713;42.676;23.352;2023-05-16T13:14:52;19.90;;;7.28;;
56830;SDS011;42713;42.676;23.352;2023-05-16T13:17:18;20.52;;;7.47;;
56830;SDS011;42713;42.676;23.352;2023-05-16T13:19:43;18.48;;;8.20;;
56830;SDS011;42713;42.676;23.352;2023-05-16T13:22:09;19.58;;;7.82;;
56830;SDS011;42713;42.676;23.352;2023-05-16T13:24:35;16.50;;;7.43;;
56830;SDS011;42713;42.676;23.352;2023-05-16T13:27:01;18.55;;;8.02;;
56830;SDS011;42713;42.676;23.352;2023-05-16T13:29:26;21.42;;;7.20;;
56830;SDS011;42713;42.676;23.352;2023-05-16T13:31:51;16.65;;;7.80;;
56830;SDS011;42713;42.676;23.352;2023-05-16T13:34:17;20.92;;;7.35;;
56830;SDS011;42713;42.676;23.352;2023-05-16T13:36:43;13.02;;;6.93;;
56830;SDS011;42713;42.676;23.352;2023-05-16T13:39:10;16.08;;;7.18;;
56830;SDS011;42713;42.676;23.352;2023-05-16T13:41:37;19.35;;;8.07;;
56830;SDS011;42713;42.676;23.352;2023-05-16T13:44:04;18.65;;;7.15;;
56830;SDS011;42713;42.676;23.352;2023-05-16T13:46:30;15.98;;;8.13;;
56830;SDS011;42713;42.676;23.352;2023-05-16T13:48:56;16.50;;;7.78;;
56830;SDS011;42713;42.676;23.352;2023-05-16T13:51:22;19.25;;;8.40;;
56830;SDS011;42713;42.676;23.352;2023-05-16T13:53:47;15.02;;;7.60;;
56830;SDS011;42713;42.676;23.352;2023-05-16T13:56:13;18.77;;;8.13;;
56830;SDS011;42713;42.676;23.352;2023-05-16T13:58:38;14.13;;;7.20;;
56830;SDS011;42713;42.676;23.352;2023-05-16T14:01:04;18.02;;;8.15;;
56830;SDS011;42713;42.676;23.352;2023-05-16T14:03:30;21.55;;;8.13;;
56830;SDS011;42713;42.676;23.352;2023-05-16T14:05:56;19.73;;;7.30;;
56830;SDS011;42713;42.676;23.352;2023-05-16T14:08:22;22.42;;;7.85;;
56830;SDS011;42713;42.676;23.352;2023-05-16T14:10:47;20.42;;;8.48;;
56830;SDS011;42713;42.676;23.352;2023-05-16T14:13:13;20.50;;;7.53;;
56830;SDS011;42713;42.676;23.352;2023-05-16T14:15:39;21.50;;;8.90;;
56830;SDS011;42713;42.676;23.352;2023-05-16T14:18:04;16.95;;;7.60;;
56830;SDS011;42713;42.676;23.352;2023-05-16T14:20:31;18.48;;;7.32;;
56830;SDS011;42713;42.676;23.352;2023-05-16T14:22:56;18.35;;;7.90;;
56830;SDS011;42713;42.676;23.352;2023-05-16T14:25:22;20.77;;;8.15;;
56830;SDS011;42713;42.676;23.352;2023-05-16T14:27:47;27.73;;;8.63;;
56830;SDS011;42713;42.676;23.352;2023-05-16T14:30:15;22.55;;;9.02;;
56830;SDS011;42713;42.676;23.352;2023-05-16T14:32:44;20.85;;;8.80;;
56830;SDS011;42713;42.676;23.352;2023-05-16T14:35:09;21.58;;;9.25;;
56830;SDS011;42713;42.676;23.352;2023-05-16T14:37:34;26.17;;;8.57;;
56830;SDS011;42713;42.676;23.352;2023-05-16T14:40:00;22.48;;;8.73;;
56830;SDS011;42713;42.676;23.352;2023-05-16T14:42:26;16.38;;;9.02;;
56830;SDS011;42713;42.676;23.352;2023-05-16T14:44:51;23.90;;;9.90;;
56830;SDS011;42713;42.676;23.352;2023-05-16T14:47:17;18.80;;;9.55;;